sensor_id;sensor_type;location;lat;lon;timestamp;noise_LAeq;noise_LA_min;noise_LA_max;noise_LA01;noise_LA95
67310;Laerm;65444;51.438;5.982;2024-01-11T00:01:10;36.48;32.85;44.62;;
67310;Laerm;65444;51.438;5.982;2024-01-11T00:01:21;37.11;34.49;39.88;;
67310;Laerm;65444;51.438;5.982;2024-01-11T00:01:38;35.90;32.27;40.33;;
67310;Laerm;65444;51.438;5.982;2024-01-11T00:02:04;34.42;32.05;37.34;;
67310;Laerm;65444;51.438;5.982;2024-01-11T00:03:29;32.54;29.65;47.49;;
67310;Laerm;65444;51.438;5.982;2024-01-11T00:07:07;31.14;29.49;33.13;;
67310;Laerm;65444;51.438;5.982;2024-01-11T00:14:44;30.79;29.16;35.98;;
67310;Laerm;65444;51.438;5.982;2024-01-11T00:19:47;30.97;29.12;44.18;;
67310;Laerm;65444;51.438;5.982;2024-01-11T00:20:08;30.75;29.40;37.80;;
67310;Laerm;65444;51.438;5.982;2024-01-11T00:20:31;30.78;28.99;33.60;;
67310;Laerm;65444;51.438;5.982;2024-01-11T00:21:57;32.08;29.50;36.69;;
67310;Laerm;65444;51.438;5.982;2024-01-11T08:18:37;42.38;36.70;60.59;;
67310;Laerm;65444;51.438;5.982;2024-01-11T08:18:48;43.51;37.30;61.61;;
67310;Laerm;65444;51.438;5.982;2024-01-11T08:18:59;47.75;37.62;59.44;;
67310;Laerm;65444;51.438;5.982;2024-01-11T08:19:13;42.20;37.75;57.44;;
67310;Laerm;65444;51.438;5.982;2024-01-11T08:20:12;41.80;34.92;61.11;;
67310;Laerm;65444;51.438;5.982;2024-01-11T08:20:26;46.46;36.38;63.02;;
67310;Laerm;65444;51.438;5.982;2024-01-11T08:20:36;42.24;34.87;55.72;;
67310;Laerm;65444;51.438;5.982;2024-01-11T08:20:50;45.90;35.83;64.27;;
67310;Laerm;65444;51.438;5.982;2024-01-11T08:21:12;45.35;38.11;65.53;;
67310;Laerm;65444;51.438;5.982;2024-01-11T08:21:23;48.41;37.22;67.88;;
67310;Laerm;65444;51.438;5.982;2024-01-11T08:21:35;39.63;37.01;47.51;;
67310;Laerm;65444;51.438;5.982;2024-01-11T08:21:48;41.88;35.65;56.49;;
67310;Laerm;65444;51.438;5.982;2024-01-11T08:21:59;42.04;36.58;55.28;;
67310;Laerm;65444;51.438;5.982;2024-01-11T08:22:49;44.00;38.07;59.32;;
67310;Laerm;65444;51.438;5.982;2024-01-11T08:51:12;42.45;36.89;49.60;;
67310;Laerm;65444;51.438;5.982;2024-01-11T08:51:22;42.06;37.81;47.81;;
67310;Laerm;65444;51.438;5.982;2024-01-11T08:51:35;42.30;36.60;55.47;;
67310;Laerm;65444;51.438;5.982;2024-01-11T08:51:53;42.40;37.22;53.71;;
67310;Laerm;65444;51.438;5.982;2024-01-11T08:52:03;43.57;37.87;54.19;;
67310;Laerm;65444;51.438;5.982;2024-01-11T08:52:14;42.75;35.55;56.26;;
67310;Laerm;65444;51.438;5.982;2024-01-11T08:52:25;40.25;35.03;55.45;;
67310;Laerm;65444;51.438;5.982;2024-01-11T08:52:36;40.01;34.24;52.01;;
67310;Laerm;65444;51.438;5.982;2024-01-11T08:52:58;39.78;35.13;48.42;;
67310;Laerm;65444;51.438;5.982;2024-01-11T08:53:09;44.42;37.11;57.00;;
67310;Laerm;65444;51.438;5.982;2024-01-11T08:53:21;44.77;38.26;59.78;;
67310;Laerm;65444;51.438;5.982;2024-01-11T08:53:32;41.63;36.96;54.88;;
67310;Laerm;65444;51.438;5.982;2024-01-11T08:53:52;40.21;37.01;44.74;;
67310;Laerm;65444;51.438;5.982;2024-01-11T08:54:05;44.27;38.53;57.03;;
67310;Laerm;65444;51.438;5.982;2024-01-11T08:54:19;41.97;37.45;50.62;;
67310;Laerm;65444;51.438;5.982;2024-01-11T08:54:31;39.83;36.58;45.49;;
67310;Laerm;65444;51.438;5.982;2024-01-11T08:56:21;43.53;38.44;56.93;;
67310;Laerm;65444;51.438;5.982;2024-01-11T08:56:38;44.95;38.73;57.87;;
67310;Laerm;65444;51.438;5.982;2024-01-11T08:56:55;42.47;37.98;56.19;;
67310;Laerm;65444;51.438;5.982;2024-01-11T08:57:12;41.12;36.86;48.55;;
67310;Laerm;65444;51.438;5.982;2024-01-11T08:59:02;39.44;34.91;50.14;;
67310;Laerm;65444;51.438;5.982;2024-01-11T09:00:00;44.79;36.46;54.46;;
67310;Laerm;65444;51.438;5.982;2024-01-11T09:00:11;42.82;38.69;47.21;;
67310;Laerm;65444;51.438;5.982;2024-01-11T09:00:58;42.24;37.43;50.37;;
67310;Laerm;65444;51.438;5.982;2024-01-11T09:01:15;40.01;37.20;45.83;;
67310;Laerm;65444;51.438;5.982;2024-01-11T09:01:31;41.12;37.79;48.93;;
67310;Laerm;65444;51.438;5.982;2024-01-11T09:01:43;40.60;35.97;47.57;;
67310;Laerm;65444;51.438;5.982;2024-01-11T09:01:54;42.48;38.53;47.45;;
67310;Laerm;65444;51.438;5.982;2024-01-11T09:02:09;42.14;38.10;47.06;;
67310;Laerm;65444;51.438;5.982;2024-01-11T09:02:31;40.94;37.06;44.36;;
67310;Laerm;65444;51.438;5.982;2024-01-11T09:02:48;42.06;38.60;48.11;;
67310;Laerm;65444;51.438;5.982;2024-01-11T09:03:03;40.42;37.44;49.51;;
67310;Laerm;65444;51.438;5.982;2024-01-11T10:50:44;38.15;34.40;51.40;;
67310;Laerm;65444;51.438;5.982;2024-01-11T10:53:42;41.96;33.40;66.43;;
67310;Laerm;65444;51.438;5.982;2024-01-11T10:53:54;40.82;36.07;61.64;;
67310;Laerm;65444;51.438;5.982;2024-01-11T10:54:05;40.59;37.35;45.05;;
67310;Laerm;65444;51.438;5.982;2024-01-11T10:54:16;39.80;36.35;51.87;;
67310;Laerm;65444;51.438;5.982;2024-01-11T10:54:27;40.12;36.71;51.34;;
67310;Laerm;65444;51.438;5.982;2024-01-11T10:54:38;38.80;35.91;44.74;;
67310;Laerm;65444;51.438;5.982;2024-01-11T10:54:51;39.62;36.20;44.86;;
67310;Laerm;65444;51.438;5.982;2024-01-11T10:55:02;40.11;36.99;47.39;;
67310;Laerm;65444;51.438;5.982;2024-01-11T10:55:16;40.30;37.08;47.79;;
67310;Laerm;65444;51.438;5.982;2024-01-11T10:55:27;40.25;36.96;46.10;;
67310;Laerm;65444;51.438;5.982;2024-01-11T10:55:41;39.42;35.97;43.94;;
67310;Laerm;65444;51.438;5.982;2024-01-11T10:55:55;40.00;37.17;45.34;;
67310;Laerm;65444;51.438;5.982;2024-01-11T10:56:07;39.50;37.00;45.32;;
67310;Laerm;65444;51.438;5.982;2024-01-11T10:56:21;39.61;37.05;45.03;;
67310;Laerm;65444;51.438;5.982;2024-01-11T10:56:35;40.55;36.28;46.61;;
67310;Laerm;65444;51.438;5.982;2024-01-11T10:56:49;40.96;36.68;46.24;;
67310;Laerm;65444;51.438;5.982;2024-01-11T10:57:03;42.28;39.49;49.71;;
67310;Laerm;65444;51.438;5.982;2024-01-11T10:57:17;43.40;37.12;63.89;;
67310;Laerm;65444;51.438;5.982;2024-01-11T10:57:29;39.59;36.96;46.24;;
67310;Laerm;65444;51.438;5.982;2024-01-11T10:57:40;46.16;37.69;59.69;;
67310;Laerm;65444;51.438;5.982;2024-01-11T10:57:51;49.23;38.83;66.57;;
67310;Laerm;65444;51.438;5.982;2024-01-11T10:58:06;40.83;36.83;52.24;;
67310;Laerm;65444;51.438;5.982;2024-01-11T10:58:17;39.61;35.60;43.52;;
67310;Laerm;65444;51.438;5.982;2024-01-11T10:58:28;46.59;39.63;52.83;;
67310;Laerm;65444;51.438;5.982;2024-01-11T10:58:39;52.71;40.54;60.31;;
67310;Laerm;65444;51.438;5.982;2024-01-11T10:58:50;40.95;37.49;44.77;;
67310;Laerm;65444;51.438;5.982;2024-01-11T10:59:04;39.89;36.19;47.02;;
67310;Laerm;65444;51.438;5.982;2024-01-11T10:59:16;44.07;35.24;61.50;;
67310;Laerm;65444;51.438;5.982;2024-01-11T10:59:28;39.99;36.07;50.14;;
67310;Laerm;65444;51.438;5.982;2024-01-11T10:59:40;39.80;36.80;48.72;;
67310;Laerm;65444;51.438;5.982;2024-01-11T10:59:51;38.39;35.80;44.45;;
67310;Laerm;65444;51.438;5.982;2024-01-11T11:00:08;38.60;33.74;46.65;;
67310;Laerm;65444;51.438;5.982;2024-01-11T11:00:24;40.33;34.65;49.58;;
67310;Laerm;65444;51.438;5.982;2024-01-11T11:00:35;40.19;34.64;46.70;;
67310;Laerm;65444;51.438;5.982;2024-01-11T11:00:46;39.31;35.03;44.51;;
67310;Laerm;65444;51.438;5.982;2024-01-11T11:00:59;39.63;34.86;46.72;;
67310;Laerm;65444;51.438;5.982;2024-01-11T11:01:11;42.54;35.79;49.49;;
67310;Laerm;65444;51.438;5.982;2024-01-11T11:01:22;44.54;38.55;54.60;;
67310;Laerm;65444;51.438;5.982;2024-01-11T11:01:34;43.97;38.12;49.75;;
67310;Laerm;65444;51.438;5.982;2024-01-11T11:01:48;43.98;38.43;55.22;;
67310;Laerm;65444;51.438;5.982;2024-01-11T11:01:59;42.50;35.36;47.54;;
67310;Laerm;65444;51.438;5.982;2024-01-11T11:02:16;43.02;37.09;50.16;;
67310;Laerm;65444;51.438;5.982;2024-01-11T11:02:29;42.56;36.09;50.14;;
67310;Laerm;65444;51.438;5.982;2024-01-11T11:02:40;41.96;37.08;52.07;;
67310;Laerm;65444;51.438;5.982;2024-01-11T11:02:52;43.06;38.55;52.21;;
67310;Laerm;65444;51.438;5.982;2024-01-11T11:03:05;43.91;38.25;53.76;;
67310;Laerm;65444;51.438;5.982;2024-01-11T11:03:17;44.55;40.05;47.88;;
67310;Laerm;65444;51.438;5.982;2024-01-11T11:03:28;49.26;39.56;56.61;;
67310;Laerm;65444;51.438;5.982;2024-01-11T11:03:41;48.18;38.56;55.05;;
67310;Laerm;65444;51.438;5.982;2024-01-11T11:04:04;41.19;36.78;52.14;;
67310;Laerm;65444;51.438;5.982;2024-01-11T11:04:15;39.20;35.62;47.49;;
67310;Laerm;65444;51.438;5.982;2024-01-11T11:04:26;41.39;34.76;57.60;;
67310;Laerm;65444;51.438;5.982;2024-01-11T11:04:43;41.01;35.58;58.67;;
67310;Laerm;65444;51.438;5.982;2024-01-11T11:04:55;39.37;34.99;53.03;;
67310;Laerm;65444;51.438;5.982;2024-01-11T11:05:09;37.66;34.71;45.74;;
67310;Laerm;65444;51.438;5.982;2024-01-11T11:05:23;38.17;33.86;48.17;;
67310;Laerm;65444;51.438;5.982;2024-01-11T11:05:35;37.75;34.01;49.62;;
67310;Laerm;65444;51.438;5.982;2024-01-11T11:05:45;41.38;34.27;57.36;;
67310;Laerm;65444;51.438;5.982;2024-01-11T11:05:58;53.36;34.23;73.61;;
67310;Laerm;65444;51.438;5.982;2024-01-11T11:06:09;41.28;34.25;57.83;;
67310;Laerm;65444;51.438;5.982;2024-01-11T11:06:21;38.47;33.48;46.76;;
67310;Laerm;65444;51.438;5.982;2024-01-11T11:06:34;38.61;33.51;50.77;;
67310;Laerm;65444;51.438;5.982;2024-01-11T11:06:45;38.03;33.60;50.04;;
67310;Laerm;65444;51.438;5.982;2024-01-11T11:06:56;36.43;33.60;43.40;;
67310;Laerm;65444;51.438;5.982;2024-01-11T11:07:07;37.37;34.17;43.49;;
67310;Laerm;65444;51.438;5.982;2024-01-11T11:07:20;42.02;33.61;58.87;;
67310;Laerm;65444;51.438;5.982;2024-01-11T11:07:33;38.73;33.62;46.35;;
67310;Laerm;65444;51.438;5.982;2024-01-11T11:07:49;39.54;35.94;46.11;;
67310;Laerm;65444;51.438;5.982;2024-01-11T11:08:01;39.26;33.38;47.34;;
67310;Laerm;65444;51.438;5.982;2024-01-11T11:08:14;38.28;33.22;50.30;;
67310;Laerm;65444;51.438;5.982;2024-01-11T11:08:26;39.27;33.05;51.07;;
67310;Laerm;65444;51.438;5.982;2024-01-11T11:08:40;37.97;32.71;44.73;;
67310;Laerm;65444;51.438;5.982;2024-01-11T11:08:50;50.90;34.89;67.61;;
67310;Laerm;65444;51.438;5.982;2024-01-11T11:09:04;49.91;35.34;62.63;;
67310;Laerm;65444;51.438;5.982;2024-01-11T11:09:27;38.15;34.32;45.74;;
67310;Laerm;65444;51.438;5.982;2024-01-11T11:09:41;38.59;33.98;50.86;;
67310;Laerm;65444;51.438;5.982;2024-01-11T11:09:54;40.14;35.58;51.60;;
67310;Laerm;65444;51.438;5.982;2024-01-11T11:10:06;37.35;34.39;40.42;;
67310;Laerm;65444;51.438;5.982;2024-01-11T11:10:19;36.85;34.59;39.62;;
67310;Laerm;65444;51.438;5.982;2024-01-11T11:10:30;43.78;34.57;59.06;;
67310;Laerm;65444;51.438;5.982;2024-01-11T11:10:41;46.84;35.36;60.73;;
67310;Laerm;65444;51.438;5.982;2024-01-11T11:10:55;38.24;35.08;43.15;;
67310;Laerm;65444;51.438;5.982;2024-01-11T11:11:07;38.73;34.81;47.77;;
67310;Laerm;65444;51.438;5.982;2024-01-11T11:11:31;39.13;35.91;45.05;;
67310;Laerm;65444;51.438;5.982;2024-01-11T11:11:47;40.09;35.98;45.65;;
67310;Laerm;65444;51.438;5.982;2024-01-11T11:12:01;40.13;37.02;44.34;;
67310;Laerm;65444;51.438;5.982;2024-01-11T11:12:14;40.20;36.46;45.55;;
67310;Laerm;65444;51.438;5.982;2024-01-11T11:12:27;47.25;40.15;53.65;;
67310;Laerm;65444;51.438;5.982;2024-01-11T11:12:39;50.59;43.47;57.21;;
67310;Laerm;65444;51.438;5.982;2024-01-11T11:13:00;46.83;40.76;55.39;;
67310;Laerm;65444;51.438;5.982;2024-01-11T11:13:10;46.28;39.43;58.29;;
67310;Laerm;65444;51.438;5.982;2024-01-11T11:13:23;44.20;37.08;51.11;;
67310;Laerm;65444;51.438;5.982;2024-01-11T11:13:34;42.30;36.84;46.54;;
67310;Laerm;65444;51.438;5.982;2024-01-11T11:13:50;43.86;35.99;48.95;;
67310;Laerm;65444;51.438;5.982;2024-01-11T11:14:02;39.24;34.87;49.07;;
67310;Laerm;65444;51.438;5.982;2024-01-11T11:15:52;37.75;33.34;44.59;;
67310;Laerm;65444;51.438;5.982;2024-01-11T11:18:29;38.96;32.92;51.72;;
67310;Laerm;65444;51.438;5.982;2024-01-11T11:18:52;40.60;34.69;47.60;;
67310;Laerm;65444;51.438;5.982;2024-01-11T11:19:02;38.26;33.93;46.28;;
67310;Laerm;65444;51.438;5.982;2024-01-11T11:19:14;41.29;35.37;50.28;;
67310;Laerm;65444;51.438;5.982;2024-01-11T11:19:26;42.59;38.23;49.59;;
67310;Laerm;65444;51.438;5.982;2024-01-11T11:19:38;39.35;34.85;48.82;;
67310;Laerm;65444;51.438;5.982;2024-01-11T11:19:48;37.24;34.08;45.95;;
67310;Laerm;65444;51.438;5.982;2024-01-11T11:19:59;37.24;34.13;46.28;;
67310;Laerm;65444;51.438;5.982;2024-01-11T11:20:10;38.09;34.52;48.45;;
67310;Laerm;65444;51.438;5.982;2024-01-11T11:20:23;38.25;34.78;47.95;;
67310;Laerm;65444;51.438;5.982;2024-01-11T11:20:34;39.40;36.13;47.03;;
67310;Laerm;65444;51.438;5.982;2024-01-11T11:20:45;39.79;34.63;45.36;;
67310;Laerm;65444;51.438;5.982;2024-01-11T11:20:56;39.48;34.95;47.13;;
67310;Laerm;65444;51.438;5.982;2024-01-11T11:21:09;37.51;34.02;44.15;;
67310;Laerm;65444;51.438;5.982;2024-01-11T11:21:29;36.72;33.86;40.21;;
67310;Laerm;65444;51.438;5.982;2024-01-11T11:21:43;37.22;34.14;45.56;;
67310;Laerm;65444;51.438;5.982;2024-01-11T11:21:56;42.51;35.28;49.26;;
67310;Laerm;65444;51.438;5.982;2024-01-11T11:22:07;50.64;35.19;59.43;;
67310;Laerm;65444;51.438;5.982;2024-01-11T11:22:17;41.00;35.36;52.84;;
67310;Laerm;65444;51.438;5.982;2024-01-11T11:22:33;38.95;34.03;49.68;;
67310;Laerm;65444;51.438;5.982;2024-01-11T11:23:22;39.71;33.77;52.63;;
67310;Laerm;65444;51.438;5.982;2024-01-11T11:23:34;38.24;33.71;44.29;;
67310;Laerm;65444;51.438;5.982;2024-01-11T11:23:45;40.58;37.77;43.30;;
67310;Laerm;65444;51.438;5.982;2024-01-11T11:23:59;41.22;37.59;44.14;;
67310;Laerm;65444;51.438;5.982;2024-01-11T11:24:12;41.83;37.07;48.88;;
67310;Laerm;65444;51.438;5.982;2024-01-11T11:24:28;39.79;36.95;46.78;;
67310;Laerm;65444;51.438;5.982;2024-01-11T11:24:41;41.68;35.85;47.80;;
67310;Laerm;65444;51.438;5.982;2024-01-11T11:25:02;40.36;34.84;50.27;;
67310;Laerm;65444;51.438;5.982;2024-01-11T11:25:25;40.20;34.87;54.95;;
67310;Laerm;65444;51.438;5.982;2024-01-11T11:25:41;37.17;33.49;48.27;;
67310;Laerm;65444;51.438;5.982;2024-01-11T11:25:55;38.38;34.15;47.88;;
67310;Laerm;65444;51.438;5.982;2024-01-11T11:26:08;38.17;34.55;46.19;;
67310;Laerm;65444;51.438;5.982;2024-01-11T11:26:25;37.63;33.89;43.23;;
67310;Laerm;65444;51.438;5.982;2024-01-11T11:26:36;36.59;33.97;44.75;;
67310;Laerm;65444;51.438;5.982;2024-01-11T11:26:55;36.59;34.07;42.10;;
67310;Laerm;65444;51.438;5.982;2024-01-11T11:27:07;39.67;33.67;47.28;;
67310;Laerm;65444;51.438;5.982;2024-01-11T11:27:18;43.13;32.65;56.21;;
67310;Laerm;65444;51.438;5.982;2024-01-11T11:27:32;45.94;34.10;61.50;;
67310;Laerm;65444;51.438;5.982;2024-01-11T11:28:01;44.74;32.79;59.29;;
67310;Laerm;65444;51.438;5.982;2024-01-11T11:28:23;47.60;34.19;61.18;;
67310;Laerm;65444;51.438;5.982;2024-01-11T11:28:34;44.05;33.78;58.16;;
67310;Laerm;65444;51.438;5.982;2024-01-11T11:28:47;39.86;35.23;43.80;;
67310;Laerm;65444;51.438;5.982;2024-01-11T11:29:02;38.90;35.01;50.17;;
67310;Laerm;65444;51.438;5.982;2024-01-11T11:29:22;38.86;34.43;45.55;;
67310;Laerm;65444;51.438;5.982;2024-01-11T11:29:32;38.84;34.17;54.48;;
67310;Laerm;65444;51.438;5.982;2024-01-11T11:29:46;36.26;33.96;44.33;;
67310;Laerm;65444;51.438;5.982;2024-01-11T11:30:08;36.52;33.76;45.59;;
67310;Laerm;65444;51.438;5.982;2024-01-11T11:30:19;40.29;34.05;50.21;;
67310;Laerm;65444;51.438;5.982;2024-01-11T11:30:47;36.49;34.15;44.44;;
67310;Laerm;65444;51.438;5.982;2024-01-11T11:31:57;38.89;33.47;56.55;;
67310;Laerm;65444;51.438;5.982;2024-01-11T11:32:10;37.13;33.67;45.17;;
67310;Laerm;65444;51.438;5.982;2024-01-11T11:32:34;44.40;35.38;51.37;;
67310;Laerm;65444;51.438;5.982;2024-01-11T11:33:32;37.87;32.51;48.10;;
67310;Laerm;65444;51.438;5.982;2024-01-11T11:33:42;37.27;33.98;45.68;;
67310;Laerm;65444;51.438;5.982;2024-01-11T11:33:53;37.78;33.84;44.75;;
67310;Laerm;65444;51.438;5.982;2024-01-11T11:34:04;38.90;35.42;43.65;;
67310;Laerm;65444;51.438;5.982;2024-01-11T11:34:20;36.51;33.67;40.15;;
67310;Laerm;65444;51.438;5.982;2024-01-11T11:34:43;38.84;33.64;45.93;;
67310;Laerm;65444;51.438;5.982;2024-01-11T11:34:54;36.40;32.17;46.59;;
67310;Laerm;65444;51.438;5.982;2024-01-11T11:35:06;35.83;33.04;42.55;;
67310;Laerm;65444;51.438;5.982;2024-01-11T11:35:25;36.80;31.63;52.90;;
67310;Laerm;65444;51.438;5.982;2024-01-11T11:35:36;37.44;33.39;47.24;;
67310;Laerm;65444;51.438;5.982;2024-01-11T11:35:48;35.63;33.29;41.51;;
67310;Laerm;65444;51.438;5.982;2024-01-11T11:35:59;35.94;32.52;46.81;;
67310;Laerm;65444;51.438;5.982;2024-01-11T11:36:12;36.97;33.63;42.46;;
67310;Laerm;65444;51.438;5.982;2024-01-11T11:36:23;38.71;34.80;46.49;;
67310;Laerm;65444;51.438;5.982;2024-01-11T11:36:41;38.20;34.58;52.89;;
67310;Laerm;65444;51.438;5.982;2024-01-11T11:36:57;37.12;34.21;41.56;;
67310;Laerm;65444;51.438;5.982;2024-01-11T11:37:22;38.13;33.49;54.21;;
67310;Laerm;65444;51.438;5.982;2024-01-11T11:37:39;39.01;34.36;46.58;;
67310;Laerm;65444;51.438;5.982;2024-01-11T11:38:10;39.56;34.82;46.73;;
67310;Laerm;65444;51.438;5.982;2024-01-11T11:38:24;39.28;33.97;48.28;;
67310;Laerm;65444;51.438;5.982;2024-01-11T11:38:35;40.34;34.50;54.01;;
67310;Laerm;65444;51.438;5.982;2024-01-11T11:38:50;36.82;34.43;41.71;;
67310;Laerm;65444;51.438;5.982;2024-01-11T11:39:13;38.95;35.62;44.58;;
67310;Laerm;65444;51.438;5.982;2024-01-11T11:39:26;39.68;35.73;47.53;;
67310;Laerm;65444;51.438;5.982;2024-01-11T11:39:41;43.72;34.48;62.11;;
67310;Laerm;65444;51.438;5.982;2024-01-11T11:40:00;37.37;34.16;42.71;;
67310;Laerm;65444;51.438;5.982;2024-01-11T16:11:03;57.65;36.74;76.23;;
67310;Laerm;65444;51.438;5.982;2024-01-11T16:11:23;52.47;35.62;69.80;;
67310;Laerm;65444;51.438;5.982;2024-01-11T16:11:34;44.92;38.64;59.02;;
67310;Laerm;65444;51.438;5.982;2024-01-11T16:12:55;53.55;37.05;77.57;;
67310;Laerm;65444;51.438;5.982;2024-01-11T16:18:34;42.97;36.03;62.15;;
67310;Laerm;65444;51.438;5.982;2024-01-11T16:21:44;44.09;36.27;57.03;;
67310;Laerm;65444;51.438;5.982;2024-01-11T16:22:50;41.27;35.46;54.71;;
67310;Laerm;65444;51.438;5.982;2024-01-11T16:29:41;45.48;36.16;67.67;;
67310;Laerm;65444;51.438;5.982;2024-01-11T16:46:18;40.71;36.12;48.39;;
67310;Laerm;65444;51.438;5.982;2024-01-11T16:46:29;40.46;35.69;43.99;;
67310;Laerm;65444;51.438;5.982;2024-01-11T16:46:39;37.02;34.52;39.35;;
67310;Laerm;65444;51.438;5.982;2024-01-11T16:46:50;39.39;35.35;43.34;;
67310;Laerm;65444;51.438;5.982;2024-01-11T16:47:03;40.61;37.09;45.88;;
67310;Laerm;65444;51.438;5.982;2024-01-11T16:47:16;40.57;36.26;46.81;;
67310;Laerm;65444;51.438;5.982;2024-01-11T16:47:27;36.45;34.12;38.48;;
67310;Laerm;65444;51.438;5.982;2024-01-11T16:47:39;37.16;35.01;43.25;;
67310;Laerm;65444;51.438;5.982;2024-01-11T16:47:50;39.87;34.89;47.62;;
67310;Laerm;65444;51.438;5.982;2024-01-11T16:48:01;38.71;35.04;44.41;;
67310;Laerm;65444;51.438;5.982;2024-01-11T16:48:14;39.17;35.95;43.39;;
67310;Laerm;65444;51.438;5.982;2024-01-11T16:48:30;39.02;34.40;44.54;;
67310;Laerm;65444;51.438;5.982;2024-01-11T16:49:20;38.84;34.37;52.62;;
67310;Laerm;65444;51.438;5.982;2024-01-11T16:49:42;38.93;36.06;41.78;;
67310;Laerm;65444;51.438;5.982;2024-01-11T16:50:09;39.45;34.79;44.47;;
67310;Laerm;65444;51.438;5.982;2024-01-11T16:50:19;42.42;35.33;54.06;;
67310;Laerm;65444;51.438;5.982;2024-01-11T16:50:30;37.77;34.46;41.37;;
67310;Laerm;65444;51.438;5.982;2024-01-11T16:51:18;36.55;34.01;40.40;;
67310;Laerm;65444;51.438;5.982;2024-01-11T16:51:29;36.54;34.42;38.79;;
67310;Laerm;65444;51.438;5.982;2024-01-11T16:51:44;36.33;34.41;39.52;;
67310;Laerm;65444;51.438;5.982;2024-01-11T16:51:55;37.17;34.59;39.86;;
67310;Laerm;65444;51.438;5.982;2024-01-11T16:52:39;39.50;35.02;46.58;;
67310;Laerm;65444;51.438;5.982;2024-01-11T16:52:50;39.24;36.12;43.50;;
67310;Laerm;65444;51.438;5.982;2024-01-11T16:53:07;38.83;36.38;43.56;;
67310;Laerm;65444;51.438;5.982;2024-01-11T16:53:17;37.95;35.49;40.19;;
67310;Laerm;65444;51.438;5.982;2024-01-11T16:53:28;38.21;35.28;43.01;;
67310;Laerm;65444;51.438;5.982;2024-01-11T16:53:41;39.06;36.50;42.75;;
67310;Laerm;65444;51.438;5.982;2024-01-11T16:53:55;36.68;33.96;43.23;;
67310;Laerm;65444;51.438;5.982;2024-01-11T16:54:22;36.85;34.66;39.09;;
67310;Laerm;65444;51.438;5.982;2024-01-11T16:54:32;39.13;35.89;46.79;;
67310;Laerm;65444;51.438;5.982;2024-01-11T16:54:44;42.11;37.77;46.07;;
67310;Laerm;65444;51.438;5.982;2024-01-11T16:54:54;41.00;36.21;45.35;;
67310;Laerm;65444;51.438;5.982;2024-01-11T16:55:05;37.34;34.22;44.84;;
67310;Laerm;65444;51.438;5.982;2024-01-11T16:55:16;36.82;34.44;41.37;;
67310;Laerm;65444;51.438;5.982;2024-01-11T16:55:26;37.12;35.34;40.14;;
67310;Laerm;65444;51.438;5.982;2024-01-11T16:57:02;37.95;33.97;46.23;;
67310;Laerm;65444;51.438;5.982;2024-01-11T16:57:17;40.14;34.37;54.06;;
67310;Laerm;65444;51.438;5.982;2024-01-11T16:57:28;38.13;35.32;40.82;;
67310;Laerm;65444;51.438;5.982;2024-01-11T16:57:47;40.77;36.51;49.16;;
67310;Laerm;65444;51.438;5.982;2024-01-11T16:57:58;37.01;34.62;41.10;;
67310;Laerm;65444;51.438;5.982;2024-01-11T16:58:38;38.79;35.08;43.26;;
67310;Laerm;65444;51.438;5.982;2024-01-11T16:58:56;38.65;35.34;43.75;;
67310;Laerm;65444;51.438;5.982;2024-01-11T16:59:07;36.51;33.95;38.90;;
67310;Laerm;65444;51.438;5.982;2024-01-11T16:59:17;52.78;35.55;68.93;;
67310;Laerm;65444;51.438;5.982;2024-01-11T16:59:31;45.95;35.67;65.54;;
67310;Laerm;65444;51.438;5.982;2024-01-11T16:59:42;36.55;34.41;39.44;;
67310;Laerm;65444;51.438;5.982;2024-01-11T16:59:52;39.43;36.07;42.58;;
67310;Laerm;65444;51.438;5.982;2024-01-11T17:00:10;36.73;33.98;42.45;;
67310;Laerm;65444;51.438;5.982;2024-01-11T17:00:21;40.57;33.80;49.33;;
67310;Laerm;65444;51.438;5.982;2024-01-11T17:00:48;37.60;34.75;40.62;;
67310;Laerm;65444;51.438;5.982;2024-01-11T17:00:59;36.65;33.77;41.78;;
67310;Laerm;65444;51.438;5.982;2024-01-11T17:01:09;36.70;34.14;39.69;;
67310;Laerm;65444;51.438;5.982;2024-01-11T17:01:28;37.50;34.71;40.23;;
67310;Laerm;65444;51.438;5.982;2024-01-11T17:01:41;37.21;33.87;41.83;;
67310;Laerm;65444;51.438;5.982;2024-01-11T17:01:52;36.67;34.42;38.97;;
67310;Laerm;65444;51.438;5.982;2024-01-11T17:02:03;36.91;34.41;43.18;;
67310;Laerm;65444;51.438;5.982;2024-01-11T17:02:14;36.58;34.31;41.18;;
67310;Laerm;65444;51.438;5.982;2024-01-11T17:02:25;36.26;33.74;38.89;;
67310;Laerm;65444;51.438;5.982;2024-01-11T17:02:52;36.23;33.99;44.92;;
67310;Laerm;65444;51.438;5.982;2024-01-11T17:03:03;36.03;33.09;39.24;;
67310;Laerm;65444;51.438;5.982;2024-01-11T17:03:14;36.90;34.27;40.72;;
67310;Laerm;65444;51.438;5.982;2024-01-11T17:03:29;38.66;35.12;44.48;;
67310;Laerm;65444;51.438;5.982;2024-01-11T17:03:40;40.75;37.10;44.32;;
67310;Laerm;65444;51.438;5.982;2024-01-11T17:03:50;38.02;35.85;40.70;;
67310;Laerm;65444;51.438;5.982;2024-01-11T17:04:09;37.45;35.47;39.40;;
67310;Laerm;65444;51.438;5.982;2024-01-11T17:04:20;43.87;35.92;49.58;;
67310;Laerm;65444;51.438;5.982;2024-01-11T17:04:31;44.09;40.16;47.30;;
67310;Laerm;65444;51.438;5.982;2024-01-11T17:04:42;41.67;38.22;50.35;;
67310;Laerm;65444;51.438;5.982;2024-01-11T17:04:53;39.30;37.64;41.26;;
67310;Laerm;65444;51.438;5.982;2024-01-11T17:05:05;40.25;36.89;43.10;;
67310;Laerm;65444;51.438;5.982;2024-01-11T17:05:15;37.30;33.78;42.56;;
67310;Laerm;65444;51.438;5.982;2024-01-11T17:05:26;35.83;33.55;46.87;;
67310;Laerm;65444;51.438;5.982;2024-01-11T17:05:36;35.66;33.27;38.98;;
67310;Laerm;65444;51.438;5.982;2024-01-11T17:05:47;38.22;33.98;43.41;;
67310;Laerm;65444;51.438;5.982;2024-01-11T17:05:57;41.88;36.62;48.24;;
67310;Laerm;65444;51.438;5.982;2024-01-11T17:06:08;41.39;38.52;45.79;;
67310;Laerm;65444;51.438;5.982;2024-01-11T17:06:18;40.76;37.00;43.59;;
67310;Laerm;65444;51.438;5.982;2024-01-11T17:06:29;43.25;34.79;51.52;;
67310;Laerm;65444;51.438;5.982;2024-01-11T17:06:40;39.67;35.62;43.08;;
67310;Laerm;65444;51.438;5.982;2024-01-11T17:06:50;46.11;39.20;51.53;;
67310;Laerm;65444;51.438;5.982;2024-01-11T17:07:01;40.67;37.74;45.43;;
67310;Laerm;65444;51.438;5.982;2024-01-11T17:07:15;37.10;34.36;42.14;;
67310;Laerm;65444;51.438;5.982;2024-01-11T17:07:25;37.96;34.82;40.86;;
67310;Laerm;65444;51.438;5.982;2024-01-11T17:07:36;36.90;35.18;39.98;;
67310;Laerm;65444;51.438;5.982;2024-01-11T17:07:46;40.03;37.07;44.61;;
67310;Laerm;65444;51.438;5.982;2024-01-11T17:07:57;37.85;35.09;41.00;;
67310;Laerm;65444;51.438;5.982;2024-01-11T17:08:07;36.89;33.48;40.40;;
67310;Laerm;65444;51.438;5.982;2024-01-11T17:08:21;35.37;33.12;43.14;;
67310;Laerm;65444;51.438;5.982;2024-01-11T17:08:32;37.26;33.51;42.69;;
67310;Laerm;65444;51.438;5.982;2024-01-11T17:08:42;41.12;35.86;46.56;;
67310;Laerm;65444;51.438;5.982;2024-01-11T17:08:53;40.57;36.47;47.22;;
67310;Laerm;65444;51.438;5.982;2024-01-11T17:09:03;44.77;32.99;59.94;;
67310;Laerm;65444;51.438;5.982;2024-01-11T17:09:16;35.62;33.29;39.53;;
67310;Laerm;65444;51.438;5.982;2024-01-11T17:09:27;39.78;35.87;44.50;;
67310;Laerm;65444;51.438;5.982;2024-01-11T17:09:40;36.05;32.93;40.14;;
67310;Laerm;65444;51.438;5.982;2024-01-11T17:09:50;34.59;32.49;36.99;;